sensor_id;sensor_type;location;lat;lon;timestamp;pressure;altitude;pressure_sealevel;temperature;humidity
55277;BME280;41136;51.478;-2.610;2023-04-02T00:01:55;101162.20;;;6.44;100.00
55277;BME280;41136;51.478;-2.610;2023-04-02T00:04:21;101167.63;;;6.73;100.00
55277;BME280;41136;51.478;-2.610;2023-04-02T00:06:45;101165.26;;;6.55;100.00
55277;BME280;41136;51.478;-2.610;2023-04-02T00:09:20;101167.26;;;6.50;100.00
55277;BME280;41136;51.478;-2.610;2023-04-02T00:11:38;101170.38;;;6.56;100.00
55277;BME280;41136;51.478;-2.610;2023-04-02T00:14:02;101177.80;;;6.58;100.00
55277;BME280;41136;51.478;-2.610;2023-04-02T00:16:27;101179.51;;;7.18;100.00
55277;BME280;41136;51.478;-2.610;2023-04-02T00:18:54;101183.25;;;6.99;100.00
55277;BME280;41136;51.478;-2.610;2023-04-02T00:21:22;101187.87;;;6.90;100.00
55277;BME280;41136;51.478;-2.610;2023-04-02T00:23:43;101186.54;;;7.66;100.00
55277;BME280;41136;51.478;-2.610;2023-04-02T00:28:34;101198.09;;;6.76;100.00
55277;BME280;41136;51.478;-2.610;2023-04-02T00:30:59;101195.77;;;6.88;100.00
55277;BME280;41136;51.478;-2.610;2023-04-02T00:33:26;101197.35;;;6.39;100.00
55277;BME280;41136;51.478;-2.610;2023-04-02T00:35:52;101197.95;;;6.73;100.00
55277;BME280;41136;51.478;-2.610;2023-04-02T00:38:20;101198.54;;;6.86;100.00
55277;BME280;41136;51.478;-2.610;2023-04-02T00:40:41;101197.87;;;6.21;100.00
55277;BME280;41136;51.478;-2.610;2023-04-02T00:43:07;101203.80;;;6.85;100.00
55277;BME280;41136;51.478;-2.610;2023-04-02T00:45:35;101209.00;;;6.73;100.00
55277;BME280;41136;51.478;-2.610;2023-04-02T00:47:59;101209.74;;;6.49;100.00
55277;BME280;41136;51.478;-2.610;2023-04-02T00:50:26;101211.43;;;7.05;100.00
55277;BME280;41136;51.478;-2.610;2023-04-02T00:52:49;101217.76;;;6.27;100.00
55277;BME280;41136;51.478;-2.610;2023-04-02T00:55:16;101219.23;;;6.37;100.00
55277;BME280;41136;51.478;-2.610;2023-04-02T00:57:41;101224.13;;;6.40;100.00
55277;BME280;41136;51.478;-2.610;2023-04-02T01:00:14;101229.51;;;5.79;100.00
55277;BME280;41136;51.478;-2.610;2023-04-02T01:02:30;101228.38;;;5.49;100.00
55277;BME280;41136;51.478;-2.610;2023-04-02T01:04:56;101223.17;;;6.19;100.00
55277;BME280;41136;51.478;-2.610;2023-04-02T01:07:27;101224.71;;;7.52;100.00
55277;BME280;41136;51.478;-2.610;2023-04-02T01:09:58;101223.40;;;6.56;100.00
55277;BME280;41136;51.478;-2.610;2023-04-02T01:14:42;101230.01;;;6.40;100.00
55277;BME280;41136;51.478;-2.610;2023-04-02T01:17:10;101232.70;;;6.78;100.00
55277;BME280;41136;51.478;-2.610;2023-04-02T01:19:45;101231.12;;;5.87;100.00
55277;BME280;41136;51.478;-2.610;2023-04-02T01:21:56;101232.20;;;6.38;100.00
55277;BME280;41136;51.478;-2.610;2023-04-02T01:24:18;101234.04;;;6.13;100.00
55277;BME280;41136;51.478;-2.610;2023-04-02T01:26:51;101238.48;;;6.22;100.00
55277;BME280;41136;51.478;-2.610;2023-04-02T01:29:10;101239.14;;;6.52;100.00
55277;BME280;41136;51.478;-2.610;2023-04-02T01:31:34;101244.33;;;6.18;100.00
55277;BME280;41136;51.478;-2.610;2023-04-02T01:33:59;101246.19;;;6.90;100.00
55277;BME280;41136;51.478;-2.610;2023-04-02T01:36:31;101248.15;;;6.66;100.00
55277;BME280;41136;51.478;-2.610;2023-04-02T01:38:54;101251.12;;;6.67;100.00
55277;BME280;41136;51.478;-2.610;2023-04-02T01:41:19;101252.39;;;7.32;100.00
55277;BME280;41136;51.478;-2.610;2023-04-02T01:43:46;101253.28;;;7.55;100.00
55277;BME280;41136;51.478;-2.610;2023-04-02T01:48:31;101246.79;;;7.68;100.00
55277;BME280;41136;51.478;-2.610;2023-04-02T01:50:58;101251.66;;;7.06;100.00
55277;BME280;41136;51.478;-2.610;2023-04-02T01:53:24;101250.00;;;7.30;100.00
55277;BME280;41136;51.478;-2.610;2023-04-02T01:55:50;101254.02;;;6.83;100.00
55277;BME280;41136;51.478;-2.610;2023-04-02T01:58:16;101255.35;;;7.14;100.00
55277;BME280;41136;51.478;-2.610;2023-04-02T02:00:44;101256.11;;;7.21;100.00
55277;BME280;41136;51.478;-2.610;2023-04-02T02:03:04;101262.89;;;7.20;100.00
55277;BME280;41136;51.478;-2.610;2023-04-02T02:05:29;101260.72;;;6.70;100.00
55277;BME280;41136;51.478;-2.610;2023-04-02T02:07:56;101265.98;;;6.79;100.00
55277;BME280;41136;51.478;-2.610;2023-04-02T02:10:24;101266.60;;;7.14;100.00
55277;BME280;41136;51.478;-2.610;2023-04-02T02:12:46;101272.12;;;7.12;100.00
55277;BME280;41136;51.478;-2.610;2023-04-02T02:15:15;101274.21;;;7.24;100.00
55277;BME280;41136;51.478;-2.610;2023-04-02T02:17:37;101276.23;;;6.23;100.00
55277;BME280;41136;51.478;-2.610;2023-04-02T02:20:02;101280.75;;;6.57;100.00
55277;BME280;41136;51.478;-2.610;2023-04-02T02:22:29;101284.31;;;6.77;100.00
55277;BME280;41136;51.478;-2.610;2023-04-02T02:24:52;101290.63;;;6.02;100.00
55277;BME280;41136;51.478;-2.610;2023-04-02T02:29:44;101297.37;;;5.96;100.00
55277;BME280;41136;51.478;-2.610;2023-04-02T02:32:09;101297.33;;;6.27;100.00
55277;BME280;41136;51.478;-2.610;2023-04-02T02:34:36;101309.04;;;5.30;100.00
55277;BME280;41136;51.478;-2.610;2023-04-02T02:37:01;101316.50;;;5.81;100.00
55277;BME280;41136;51.478;-2.610;2023-04-02T02:39:28;101315.22;;;5.73;100.00
55277;BME280;41136;51.478;-2.610;2023-04-02T02:41:51;101314.59;;;6.01;100.00
55277;BME280;41136;51.478;-2.610;2023-04-02T02:44:17;101315.60;;;6.43;100.00
55277;BME280;41136;51.478;-2.610;2023-04-02T02:46:43;101312.20;;;6.76;100.00
55277;BME280;41136;51.478;-2.610;2023-04-02T02:49:06;101319.95;;;6.24;100.00
55277;BME280;41136;51.478;-2.610;2023-04-02T02:51:38;101327.67;;;6.56;100.00
55277;BME280;41136;51.478;-2.610;2023-04-02T02:54:01;101334.95;;;6.02;100.00
55277;BME280;41136;51.478;-2.610;2023-04-02T02:56:22;101331.31;;;5.91;100.00
55277;BME280;41136;51.478;-2.610;2023-04-02T02:58:46;101333.48;;;5.80;100.00
55277;BME280;41136;51.478;-2.610;2023-04-02T03:01:11;101333.88;;;5.65;100.00
55277;BME280;41136;51.478;-2.610;2023-04-02T03:06:18;101336.73;;;5.68;100.00
55277;BME280;41136;51.478;-2.610;2023-04-02T03:11:58;101348.53;;;6.06;100.00
55277;BME280;41136;51.478;-2.610;2023-04-02T03:14:23;101354.76;;;5.76;100.00
55277;BME280;41136;51.478;-2.610;2023-04-02T03:16:46;101361.40;;;6.11;100.00
55277;BME280;41136;51.478;-2.610;2023-04-02T03:19:17;101365.36;;;5.12;100.00
55277;BME280;41136;51.478;-2.610;2023-04-02T03:21:38;101368.19;;;6.07;100.00
55277;BME280;41136;51.478;-2.610;2023-04-02T03:24:02;101364.79;;;6.21;100.00
55277;BME280;41136;51.478;-2.610;2023-04-02T03:26:30;101367.83;;;6.50;100.00
55277;BME280;41136;51.478;-2.610;2023-04-02T03:28:56;101368.37;;;6.49;100.00
55277;BME280;41136;51.478;-2.610;2023-04-02T03:31:22;101365.22;;;7.23;100.00
55277;BME280;41136;51.478;-2.610;2023-04-02T03:33:43;101368.53;;;6.66;100.00
55277;BME280;41136;51.478;-2.610;2023-04-02T03:36:14;101369.51;;;6.86;100.00
55277;BME280;41136;51.478;-2.610;2023-04-02T03:38:35;101372.00;;;6.21;100.00
55277;BME280;41136;51.478;-2.610;2023-04-02T03:41:02;101380.91;;;6.36;100.00
55277;BME280;41136;51.478;-2.610;2023-04-02T03:43:24;101390.84;;;5.77;100.00
55277;BME280;41136;51.478;-2.610;2023-04-02T03:45:50;101398.01;;;5.74;100.00
55277;BME280;41136;51.478;-2.610;2023-04-02T03:48:16;101400.23;;;5.97;100.00
55277;BME280;41136;51.478;-2.610;2023-04-02T03:50:44;101408.45;;;5.54;100.00
55277;BME280;41136;51.478;-2.610;2023-04-02T03:53:04;101406.96;;;5.16;100.00
55277;BME280;41136;51.478;-2.610;2023-04-02T03:55:32;101402.76;;;5.92;100.00
55277;BME280;41136;51.478;-2.610;2023-04-02T03:58:00;101403.40;;;5.85;100.00
55277;BME280;41136;51.478;-2.610;2023-04-02T04:00:25;101408.07;;;5.63;100.00
55277;BME280;41136;51.478;-2.610;2023-04-02T04:02:49;101415.32;;;5.35;100.00
55277;BME280;41136;51.478;-2.610;2023-04-02T04:05:21;101412.66;;;5.75;100.00
55277;BME280;41136;51.478;-2.610;2023-04-02T04:07:39;101410.20;;;6.05;100.00
55277;BME280;41136;51.478;-2.610;2023-04-02T04:10:03;101412.48;;;5.46;100.00
55277;BME280;41136;51.478;-2.610;2023-04-02T04:12:31;101418.53;;;5.93;100.00
55277;BME280;41136;51.478;-2.610;2023-04-02T04:14:57;101421.09;;;5.96;100.00
55277;BME280;41136;51.478;-2.610;2023-04-02T04:17:23;101423.52;;;5.58;100.00
55277;BME280;41136;51.478;-2.610;2023-04-02T04:19:46;101426.22;;;5.69;100.00
55277;BME280;41136;51.478;-2.610;2023-04-02T04:22:10;101425.09;;;5.68;100.00
55277;BME280;41136;51.478;-2.610;2023-04-02T04:24:34;101432.18;;;5.14;100.00
55277;BME280;41136;51.478;-2.610;2023-04-02T04:27:05;101430.43;;;5.61;100.00
55277;BME280;41136;51.478;-2.610;2023-04-02T04:29:32;101429.89;;;5.56;100.00
55277;BME280;41136;51.478;-2.610;2023-04-02T04:31:51;101434.80;;;6.19;100.00
55277;BME280;41136;51.478;-2.610;2023-04-02T04:34:18;101444.06;;;5.93;100.00
55277;BME280;41136;51.478;-2.610;2023-04-02T04:36:43;101452.11;;;5.67;100.00
55277;BME280;41136;51.478;-2.610;2023-04-02T04:39:11;101455.76;;;4.69;100.00
55277;BME280;41136;51.478;-2.610;2023-04-02T04:41:34;101458.13;;;5.57;100.00
55277;BME280;41136;51.478;-2.610;2023-04-02T04:44:02;101460.78;;;5.75;100.00
55277;BME280;41136;51.478;-2.610;2023-04-02T04:46:27;101471.25;;;5.56;100.00
55277;BME280;41136;51.478;-2.610;2023-04-02T04:48:52;101479.01;;;5.56;100.00
55277;BME280;41136;51.478;-2.610;2023-04-02T04:51:19;101484.63;;;5.60;100.00
55277;BME280;41136;51.478;-2.610;2023-04-02T04:53:45;101486.37;;;5.97;100.00
55277;BME280;41136;51.478;-2.610;2023-04-02T04:56:05;101489.91;;;6.27;100.00
55277;BME280;41136;51.478;-2.610;2023-04-02T04:58:34;101489.89;;;6.04;100.00
55277;BME280;41136;51.478;-2.610;2023-04-02T05:01:01;101494.97;;;6.46;100.00
55277;BME280;41136;51.478;-2.610;2023-04-02T05:03:28;101504.53;;;5.54;100.00
55277;BME280;41136;51.478;-2.610;2023-04-02T05:05:46;101513.59;;;5.36;100.00
55277;BME280;41136;51.478;-2.610;2023-04-02T05:08:15;101517.06;;;5.20;100.00
55277;BME280;41136;51.478;-2.610;2023-04-02T05:10:41;101517.81;;;5.64;100.00
55277;BME280;41136;51.478;-2.610;2023-04-02T05:13:06;101515.10;;;5.97;100.00
55277;BME280;41136;51.478;-2.610;2023-04-02T05:15:31;101512.03;;;5.94;100.00
55277;BME280;41136;51.478;-2.610;2023-04-02T05:17:59;101516.14;;;5.65;100.00
55277;BME280;41136;51.478;-2.610;2023-04-02T05:20:22;101520.28;;;5.55;100.00
55277;BME280;41136;51.478;-2.610;2023-04-02T05:22:47;101524.93;;;5.18;100.00
55277;BME280;41136;51.478;-2.610;2023-04-02T05:25:17;101524.68;;;5.91;100.00
55277;BME280;41136;51.478;-2.610;2023-04-02T05:27:38;101522.15;;;6.39;100.00
55277;BME280;41136;51.478;-2.610;2023-04-02T05:30:07;101525.37;;;5.96;100.00
55277;BME280;41136;51.478;-2.610;2023-04-02T05:32:28;101524.61;;;5.96;100.00
55277;BME280;41136;51.478;-2.610;2023-04-02T05:34:53;101526.94;;;6.10;100.00
55277;BME280;41136;51.478;-2.610;2023-04-02T05:37:17;101529.65;;;5.71;100.00
55277;BME280;41136;51.478;-2.610;2023-04-02T05:39:43;101533.80;;;5.70;100.00
55277;BME280;41136;51.478;-2.610;2023-04-02T05:42:07;101536.61;;;6.01;100.00
55277;BME280;41136;51.478;-2.610;2023-04-02T05:44:33;101540.21;;;5.66;100.00
55277;BME280;41136;51.478;-2.610;2023-04-02T05:46:59;101539.84;;;5.49;100.00
55277;BME280;41136;51.478;-2.610;2023-04-02T05:49:27;101545.01;;;5.25;100.00
55277;BME280;41136;51.478;-2.610;2023-04-02T05:51:50;101547.34;;;5.37;100.00
55277;BME280;41136;51.478;-2.610;2023-04-02T05:54:19;101551.74;;;5.60;100.00
55277;BME280;41136;51.478;-2.610;2023-04-02T05:56:41;101554.80;;;5.61;100.00
55277;BME280;41136;51.478;-2.610;2023-04-02T05:59:06;101558.19;;;5.16;100.00
55277;BME280;41136;51.478;-2.610;2023-04-02T06:01:34;101563.65;;;5.07;100.00
55277;BME280;41136;51.478;-2.610;2023-04-02T06:03:58;101570.14;;;4.87;100.00
55277;BME280;41136;51.478;-2.610;2023-04-02T06:06:30;101568.89;;;5.24;100.00
55277;BME280;41136;51.478;-2.610;2023-04-02T06:08:50;101567.94;;;6.02;100.00
55277;BME280;41136;51.478;-2.610;2023-04-02T06:11:12;101570.32;;;5.34;100.00
55277;BME280;41136;51.478;-2.610;2023-04-02T06:13:35;101569.87;;;6.20;100.00
55277;BME280;41136;51.478;-2.610;2023-04-02T06:16:01;101569.43;;;6.25;100.00
55277;BME280;41136;51.478;-2.610;2023-04-02T06:18:27;101579.63;;;6.38;100.00
55277;BME280;41136;51.478;-2.610;2023-04-02T06:20:52;101580.40;;;6.11;100.00
55277;BME280;41136;51.478;-2.610;2023-04-02T06:23:21;101586.31;;;5.80;100.00
55277;BME280;41136;51.478;-2.610;2023-04-02T06:25:45;101592.90;;;5.52;100.00
55277;BME280;41136;51.478;-2.610;2023-04-02T06:28:12;101595.81;;;4.92;100.00
55277;BME280;41136;51.478;-2.610;2023-04-02T06:30:35;101599.76;;;5.70;100.00
55277;BME280;41136;51.478;-2.610;2023-04-02T06:32:58;101595.30;;;5.09;100.00
55277;BME280;41136;51.478;-2.610;2023-04-02T06:35:24;101592.85;;;6.41;100.00
55277;BME280;41136;51.478;-2.610;2023-04-02T06:37:52;101596.60;;;6.60;100.00
55277;BME280;41136;51.478;-2.610;2023-04-02T06:40:26;101602.09;;;6.88;100.00
55277;BME280;41136;51.478;-2.610;2023-04-02T06:42:40;101606.91;;;7.08;100.00
55277;BME280;41136;51.478;-2.610;2023-04-02T06:45:07;101612.24;;;6.08;100.00
55277;BME280;41136;51.478;-2.610;2023-04-02T06:47:33;101617.04;;;6.56;100.00
55277;BME280;41136;51.478;-2.610;2023-04-02T06:49:59;101624.51;;;5.84;100.00
55277;BME280;41136;51.478;-2.610;2023-04-02T06:52:23;101632.67;;;6.56;100.00
55277;BME280;41136;51.478;-2.610;2023-04-02T06:54:46;101633.82;;;6.09;100.00
55277;BME280;41136;51.478;-2.610;2023-04-02T06:57:11;101638.90;;;6.83;100.00
55277;BME280;41136;51.478;-2.610;2023-04-02T06:59:36;101639.56;;;7.22;100.00
55277;BME280;41136;51.478;-2.610;2023-04-02T07:02:04;101642.68;;;7.05;100.00
55277;BME280;41136;51.478;-2.610;2023-04-02T07:04:27;101645.45;;;6.93;100.00
55277;BME280;41136;51.478;-2.610;2023-04-02T07:06:52;101652.56;;;7.10;100.00
55277;BME280;41136;51.478;-2.610;2023-04-02T07:09:18;101662.49;;;6.47;100.00
55277;BME280;41136;51.478;-2.610;2023-04-02T07:11:42;101662.44;;;7.14;100.00
55277;BME280;41136;51.478;-2.610;2023-04-02T07:14:10;101668.29;;;6.93;100.00
55277;BME280;41136;51.478;-2.610;2023-04-02T07:16:33;101674.26;;;7.10;100.00
55277;BME280;41136;51.478;-2.610;2023-04-02T07:18:58;101679.71;;;7.41;100.00
55277;BME280;41136;51.478;-2.610;2023-04-02T07:21:24;101684.07;;;7.39;100.00
55277;BME280;41136;51.478;-2.610;2023-04-02T07:23:49;101693.39;;;6.82;100.00
55277;BME280;41136;51.478;-2.610;2023-04-02T07:26:15;101698.82;;;6.38;100.00
55277;BME280;41136;51.478;-2.610;2023-04-02T07:28:39;101703.22;;;6.08;100.00
55277;BME280;41136;51.478;-2.610;2023-04-02T07:31:13;101714.05;;;6.02;100.00
55277;BME280;41136;51.478;-2.610;2023-04-02T07:33:30;101713.88;;;6.36;100.00
55277;BME280;41136;51.478;-2.610;2023-04-02T07:35:55;101714.86;;;5.61;100.00
55277;BME280;41136;51.478;-2.610;2023-04-02T07:38:20;101714.42;;;6.09;100.00
55277;BME280;41136;51.478;-2.610;2023-04-02T07:40:46;101716.70;;;6.99;100.00
55277;BME280;41136;51.478;-2.610;2023-04-02T07:43:11;101718.79;;;7.00;100.00
55277;BME280;41136;51.478;-2.610;2023-04-02T07:45:37;101719.16;;;7.25;100.00
55277;BME280;41136;51.478;-2.610;2023-04-02T07:48:04;101716.88;;;7.26;100.00
55277;BME280;41136;51.478;-2.610;2023-04-02T07:50:27;101710.15;;;7.79;100.00
55277;BME280;41136;51.478;-2.610;2023-04-02T07:52:53;101708.21;;;7.94;100.00
55277;BME280;41136;51.478;-2.610;2023-04-02T07:55:18;101702.95;;;7.70;100.00
55277;BME280;41136;51.478;-2.610;2023-04-02T07:57:49;101705.08;;;8.11;100.00
55277;BME280;41136;51.478;-2.610;2023-04-02T08:00:10;101708.14;;;7.99;100.00
55277;BME280;41136;51.478;-2.610;2023-04-02T08:02:35;101704.26;;;8.69;100.00
55277;BME280;41136;51.478;-2.610;2023-04-02T08:05:01;101710.48;;;6.96;100.00
55277;BME280;41136;51.478;-2.610;2023-04-02T08:07:26;101717.99;;;6.62;100.00
55277;BME280;41136;51.478;-2.610;2023-04-02T08:09:51;101723.26;;;6.88;100.00
55277;BME280;41136;51.478;-2.610;2023-04-02T08:12:16;101725.86;;;7.44;100.00
55277;BME280;41136;51.478;-2.610;2023-04-02T08:14:41;101730.44;;;6.62;100.00
55277;BME280;41136;51.478;-2.610;2023-04-02T08:17:07;101730.06;;;6.97;100.00
55277;BME280;41136;51.478;-2.610;2023-04-02T08:19:32;101723.78;;;7.38;100.00
55277;BME280;41136;51.478;-2.610;2023-04-02T08:21:58;101728.62;;;7.29;100.00
55277;BME280;41136;51.478;-2.610;2023-04-02T08:24:23;101731.74;;;7.35;100.00
55277;BME280;41136;51.478;-2.610;2023-04-02T08:26:49;101734.91;;;7.38;100.00
55277;BME280;41136;51.478;-2.610;2023-04-02T08:29:14;101730.06;;;7.79;100.00
55277;BME280;41136;51.478;-2.610;2023-04-02T08:31:39;101727.25;;;7.48;100.00
55277;BME280;41136;51.478;-2.610;2023-04-02T08:34:04;101734.08;;;8.18;100.00
55277;BME280;41136;51.478;-2.610;2023-04-02T08:36:32;101739.01;;;8.73;100.00
55277;BME280;41136;51.478;-2.610;2023-04-02T08:38:55;101746.20;;;9.17;100.00
55277;BME280;41136;51.478;-2.610;2023-04-02T08:41:22;101751.70;;;8.35;100.00
55277;BME280;41136;51.478;-2.610;2023-04-02T08:46:15;101757.49;;;8.80;100.00
55277;BME280;41136;51.478;-2.610;2023-04-02T08:48:37;101759.78;;;9.53;100.00
55277;BME280;41136;51.478;-2.610;2023-04-02T08:51:02;101763.84;;;9.33;100.00
55277;BME280;41136;51.478;-2.610;2023-04-02T08:53:29;101772.38;;;9.62;100.00
55277;BME280;41136;51.478;-2.610;2023-04-02T08:55:56;101779.48;;;7.32;100.00
55277;BME280;41136;51.478;-2.610;2023-04-02T08:58:27;101784.24;;;7.51;100.00
55277;BME280;41136;51.478;-2.610;2023-04-02T09:00:44;101785.15;;;6.98;100.00
55277;BME280;41136;51.478;-2.610;2023-04-02T09:03:12;101786.90;;;7.61;100.00
55277;BME280;41136;51.478;-2.610;2023-04-02T09:05:36;101789.32;;;7.44;100.00
55277;BME280;41136;51.478;-2.610;2023-04-02T09:08:02;101787.76;;;7.72;100.00
55277;BME280;41136;51.478;-2.610;2023-04-02T09:10:32;101796.98;;;7.65;100.00
55277;BME280;41136;51.478;-2.610;2023-04-02T09:12:51;101800.97;;;7.68;100.00
55277;BME280;41136;51.478;-2.610;2023-04-02T09:15:20;101803.32;;;8.46;100.00
55277;BME280;41136;51.478;-2.610;2023-04-02T09:17:40;101804.20;;;7.99;100.00
55277;BME280;41136;51.478;-2.610;2023-04-02T09:20:15;101809.80;;;8.14;100.00
55277;BME280;41136;51.478;-2.610;2023-04-02T09:22:32;101812.75;;;7.47;100.00
55277;BME280;41136;51.478;-2.610;2023-04-02T09:24:58;101813.40;;;7.77;100.00
55277;BME280;41136;51.478;-2.610;2023-04-02T09:27:23;101820.42;;;6.98;100.00
55277;BME280;41136;51.478;-2.610;2023-04-02T09:29:48;101830.33;;;6.82;100.00
55277;BME280;41136;51.478;-2.610;2023-04-02T09:32:24;101838.38;;;6.54;100.00
55277;BME280;41136;51.478;-2.610;2023-04-02T09:34:38;101838.69;;;7.21;100.00
55277;BME280;41136;51.478;-2.610;2023-04-02T09:37:07;101841.28;;;7.37;100.00
55277;BME280;41136;51.478;-2.610;2023-04-02T09:39:28;101846.92;;;7.12;100.00
55277;BME280;41136;51.478;-2.610;2023-04-02T09:41:53;101848.67;;;7.27;100.00
55277;BME280;41136;51.478;-2.610;2023-04-02T09:44:21;101849.21;;;7.72;100.00
55277;BME280;41136;51.478;-2.610;2023-04-02T09:46:51;101846.56;;;9.10;100.00
55277;BME280;41136;51.478;-2.610;2023-04-02T09:49:12;101844.77;;;8.72;100.00
55277;BME280;41136;51.478;-2.610;2023-04-02T09:51:34;101846.11;;;9.78;100.00
55277;BME280;41136;51.478;-2.610;2023-04-02T09:54:06;101851.31;;;8.79;100.00
55277;BME280;41136;51.478;-2.610;2023-04-02T09:56:25;101850.96;;;8.44;100.00
55277;BME280;41136;51.478;-2.610;2023-04-02T10:03:42;101862.46;;;8.38;100.00
55277;BME280;41136;51.478;-2.610;2023-04-02T10:06:09;101865.37;;;8.78;100.00
55277;BME280;41136;51.478;-2.610;2023-04-02T10:08:32;101871.97;;;7.87;100.00
55277;BME280;41136;51.478;-2.610;2023-04-02T10:11:00;101876.32;;;7.13;100.00
55277;BME280;41136;51.478;-2.610;2023-04-02T10:13:26;101884.00;;;7.87;100.00
55277;BME280;41136;51.478;-2.610;2023-04-02T10:15:53;101884.07;;;8.52;100.00
55277;BME280;41136;51.478;-2.610;2023-04-02T10:18:19;101887.59;;;8.20;100.00
55277;BME280;41136;51.478;-2.610;2023-04-02T10:20:40;101885.16;;;9.18;100.00
55277;BME280;41136;51.478;-2.610;2023-04-02T10:23:04;101882.77;;;9.52;100.00
55277;BME280;41136;51.478;-2.610;2023-04-02T10:25:34;101888.86;;;7.91;100.00
55277;BME280;41136;51.478;-2.610;2023-04-02T10:28:01;101890.31;;;7.58;100.00
55277;BME280;41136;51.478;-2.610;2023-04-02T10:30:23;101900.01;;;7.93;100.00
55277;BME280;41136;51.478;-2.610;2023-04-02T10:32:50;101905.25;;;7.87;100.00
55277;BME280;41136;51.478;-2.610;2023-04-02T10:35:19;101908.31;;;7.78;100.00
55277;BME280;41136;51.478;-2.610;2023-04-02T10:40:08;101931.60;;;7.63;100.00
55277;BME280;41136;51.478;-2.610;2023-04-02T10:42:34;101933.57;;;7.08;100.00
55277;BME280;41136;51.478;-2.610;2023-04-02T10:44:55;101938.80;;;7.31;100.00
55277;BME280;41136;51.478;-2.610;2023-04-02T10:47:28;101941.04;;;8.45;100.00
55277;BME280;41136;51.478;-2.610;2023-04-02T10:49:49;101942.62;;;7.77;100.00
55277;BME280;41136;51.478;-2.610;2023-04-02T10:52:13;101944.99;;;7.10;100.00
55277;BME280;41136;51.478;-2.610;2023-04-02T10:54:41;101945.51;;;7.68;100.00
55277;BME280;41136;51.478;-2.610;2023-04-02T10:57:06;101943.04;;;7.36;100.00
55277;BME280;41136;51.478;-2.610;2023-04-02T10:59:28;101943.72;;;7.92;100.00
55277;BME280;41136;51.478;-2.610;2023-04-02T11:01:52;101947.46;;;7.56;100.00
55277;BME280;41136;51.478;-2.610;2023-04-02T11:04:18;101949.74;;;7.61;100.00
55277;BME280;41136;51.478;-2.610;2023-04-02T11:06:44;101953.38;;;8.21;100.00
55277;BME280;41136;51.478;-2.610;2023-04-02T11:09:13;101949.84;;;7.78;100.00
55277;BME280;41136;51.478;-2.610;2023-04-02T11:11:37;101955.72;;;7.12;100.00
55277;BME280;41136;51.478;-2.610;2023-04-02T11:13:59;101957.74;;;7.64;100.00
55277;BME280;41136;51.478;-2.610;2023-04-02T11:16:23;101957.45;;;7.12;100.00
55277;BME280;41136;51.478;-2.610;2023-04-02T11:23:54;101960.77;;;7.15;100.00
55277;BME280;41136;51.478;-2.610;2023-04-02T11:28:31;101966.72;;;7.77;100.00
55277;BME280;41136;51.478;-2.610;2023-04-02T11:30:55;101970.92;;;7.44;100.00
55277;BME280;41136;51.478;-2.610;2023-04-02T11:35:45;101973.63;;;7.70;100.00
55277;BME280;41136;51.478;-2.610;2023-04-02T11:40:43;101980.28;;;8.04;100.00
55277;BME280;41136;51.478;-2.610;2023-04-02T11:52:51;101978.96;;;7.13;100.00
55277;BME280;41136;51.478;-2.610;2023-04-02T11:57:46;101977.40;;;7.21;100.00
55277;BME280;41136;51.478;-2.610;2023-04-02T12:02:27;101986.97;;;8.07;100.00
55277;BME280;41136;51.478;-2.610;2023-04-02T12:05:02;101987.63;;;7.43;100.00
55277;BME280;41136;51.478;-2.610;2023-04-02T12:09:43;101989.97;;;7.03;100.00
55277;BME280;41136;51.478;-2.610;2023-04-02T12:14:41;101992.20;;;6.86;100.00
55277;BME280;41136;51.478;-2.610;2023-04-02T12:16:57;101995.51;;;6.94;100.00
55277;BME280;41136;51.478;-2.610;2023-04-02T12:19:22;102002.49;;;7.90;100.00
55277;BME280;41136;51.478;-2.610;2023-04-02T12:21:48;102002.18;;;8.38;100.00
55277;BME280;41136;51.478;-2.610;2023-04-02T12:24:18;102003.09;;;8.11;100.00
55277;BME280;41136;51.478;-2.610;2023-04-02T12:26:38;102004.00;;;7.25;100.00
55277;BME280;41136;51.478;-2.610;2023-04-02T12:29:13;102003.11;;;8.26;100.00
55277;BME280;41136;51.478;-2.610;2023-04-02T12:31:29;102000.11;;;9.45;100.00
55277;BME280;41136;51.478;-2.610;2023-04-02T12:33:54;101996.37;;;8.05;100.00
55277;BME280;41136;51.478;-2.610;2023-04-02T12:36:21;101996.53;;;8.84;100.00
55277;BME280;41136;51.478;-2.610;2023-04-02T12:38:46;101994.57;;;8.43;100.00
55277;BME280;41136;51.478;-2.610;2023-04-02T12:41:18;101991.26;;;8.87;100.00
55277;BME280;41136;51.478;-2.610;2023-04-02T12:43:35;101995.56;;;8.60;100.00
55277;BME280;41136;51.478;-2.610;2023-04-02T12:46:03;101995.65;;;10.17;100.00
55277;BME280;41136;51.478;-2.610;2023-04-02T12:48:26;101998.52;;;9.26;100.00
55277;BME280;41136;51.478;-2.610;2023-04-02T12:50:51;101992.73;;;9.79;100.00
55277;BME280;41136;51.478;-2.610;2023-04-02T12:53:20;101994.92;;;9.87;100.00
55277;BME280;41136;51.478;-2.610;2023-04-02T12:55:45;101990.91;;;10.44;100.00
55277;BME280;41136;51.478;-2.610;2023-04-02T13:00:33;101993.24;;;10.70;100.00
55277;BME280;41136;51.478;-2.610;2023-04-02T13:03:01;101995.92;;;9.66;100.00
55277;BME280;41136;51.478;-2.610;2023-04-02T13:05:31;101997.71;;;8.83;100.00
55277;BME280;41136;51.478;-2.610;2023-04-02T13:07:48;101989.17;;;10.87;100.00
55277;BME280;41136;51.478;-2.610;2023-04-02T13:10:21;101988.90;;;11.53;100.00
55277;BME280;41136;51.478;-2.610;2023-04-02T13:12:39;101989.42;;;11.31;100.00
55277;BME280;41136;51.478;-2.610;2023-04-02T13:15:05;101990.13;;;11.35;100.00
55277;BME280;41136;51.478;-2.610;2023-04-02T13:17:38;101984.98;;;9.34;100.00
55277;BME280;41136;51.478;-2.610;2023-04-02T13:19:54;101985.16;;;8.74;100.00
55277;BME280;41136;51.478;-2.610;2023-04-02T13:22:28;101986.81;;;8.46;100.00
55277;BME280;41136;51.478;-2.610;2023-04-02T13:24:44;101987.29;;;8.97;100.00
55277;BME280;41136;51.478;-2.610;2023-04-02T13:27:10;101989.01;;;8.06;100.00
55277;BME280;41136;51.478;-2.610;2023-04-02T13:29:36;101981.29;;;7.58;100.00